Time;durP1;ratioP1;P1;durP2;ratioP2;P2;SDS_P1;SDS_P2;PMS_P1;PMS_P2;Temp;Humidity;BMP_temperature;BMP_pressure;BME280_temperature;BME280_humidity;BME280_pressure;Samples;Min_cycle;Max_cycle;Signal;HPM_P1;HPM_P2
2021/08/22 00:00:56;;;;;;;29.02;17.33;;;;;;;17.83;100.00;101558.59;5060072;28;20068;-66
2021/08/22 00:03:24;;;;;;;28.75;17.65;;;;;;;17.75;100.00;101555.41;5056199;28;20064;-66
2021/08/22 00:05:53;;;;;;;42.35;23.75;;;;;;;17.70;100.00;101555.63;5055810;28;20072;-68
2021/08/22 00:08:21;;;;;;;30.27;17.50;;;;;;;17.68;100.00;101556.69;5056171;28;20561;-67
2021/08/22 00:10:48;;;;;;;31.42;16.75;;;;;;;17.59;100.00;101557.13;5059656;28;20499;-67
2021/08/22 00:13:16;;;;;;;27.05;15.05;;;;;;;17.52;100.00;101557.47;5058053;28;21370;-68
2021/08/22 00:15:46;;;;;;;26.65;13.05;;;;;;;17.48;100.00;101550.44;5057384;28;20100;-68
2021/08/22 00:18:14;;;;;;;24.00;13.23;;;;;;;17.38;100.00;101548.28;5053906;28;20064;-68
2021/08/22 00:20:42;;;;;;;22.08;10.77;;;;;;;17.42;100.00;101549.88;5055345;28;22227;-67
2021/08/22 00:23:10;;;;;;;19.45;9.73;;;;;;;17.35;100.00;101549.34;5060284;28;20436;-67
2021/08/22 00:25:37;;;;;;;16.83;9.38;;;;;;;17.34;100.00;101542.19;5056324;28;20564;-69
2021/08/22 00:28:05;;;;;;;16.77;8.55;;;;;;;17.31;100.00;101553.09;5060449;28;20418;-69
2021/08/22 00:30:33;;;;;;;17.40;8.98;;;;;;;17.21;100.00;101549.13;5054429;28;20103;-68
2021/08/22 00:33:03;;;;;;;13.32;7.93;;;;;;;17.25;100.00;101545.34;5056963;28;20105;-69
2021/08/22 00:35:30;;;;;;;15.48;8.80;;;;;;;17.29;100.00;101544.22;5059923;28;20104;-69
2021/08/22 00:37:58;;;;;;;17.88;9.63;;;;;;;17.27;100.00;101540.75;5058591;28;20157;-68
2021/08/22 00:40:26;;;;;;;17.58;9.45;;;;;;;17.30;100.00;101549.56;5056620;28;20508;-71
2021/08/22 00:42:54;;;;;;;16.45;8.85;;;;;;;17.28;100.00;101546.06;5056329;28;20040;-67
2021/08/22 00:45:22;;;;;;;22.00;9.95;;;;;;;17.26;100.00;101544.38;5055937;28;20070;-68
2021/08/22 00:47:50;;;;;;;16.98;9.52;;;;;;;17.23;100.00;101548.09;5054197;28;20060;-68
2021/08/22 00:50:20;;;;;;;20.55;10.27;;;;;;;17.28;100.00;101551.44;5058340;28;20063;-68
2021/08/22 00:52:50;;;;;;;16.70;9.18;;;;;;;17.25;100.00;101556.13;5055980;28;20114;-68
2021/08/22 00:55:19;;;;;;;14.65;10.05;;;;;;;17.23;100.00;101556.19;5057917;28;20487;-68
2021/08/22 00:57:46;;;;;;;17.10;9.90;;;;;;;17.24;100.00;101557.06;5056365;28;20065;-68
2021/08/22 01:00:16;;;;;;;17.33;9.32;;;;;;;17.22;100.00;101553.56;5059980;28;20174;-68
2021/08/22 01:02:49;;;;;;;17.90;11.05;;;;;;;17.24;100.00;101552.53;5060995;28;20102;-69
2021/08/22 01:05:29;;;;;;;16.02;9.98;;;;;;;17.24;100.00;101543.56;5061816;28;20087;-66
2021/08/22 01:08:06;;;;;;;17.65;9.60;;;;;;;17.29;100.00;101549.63;5061762;28;20053;-66
2021/08/22 01:10:35;;;;;;;19.45;10.40;;;;;;;17.26;100.00;101549.75;5057196;28;20113;-66
2021/08/22 01:13:07;;;;;;;20.45;9.93;;;;;;;17.27;100.00;101536.22;5059962;28;20382;-67
2021/08/22 01:15:39;;;;;;;14.23;7.80;;;;;;;17.29;100.00;101542.41;5063561;28;20141;-67
2021/08/22 01:18:11;;;;;;;15.25;8.43;;;;;;;17.25;100.00;101537.25;5061074;28;20092;-66
2021/08/22 01:20:49;;;;;;;13.50;6.63;;;;;;;17.13;100.00;101536.88;5063346;28;20064;-68
2021/08/22 01:23:17;;;;;;;13.98;6.10;;;;;;;17.05;100.00;101525.59;5060550;28;20475;-67
2021/08/22 01:25:47;;;;;;;12.48;5.22;;;;;;;17.01;100.00;101521.31;5059918;28;20318;-67
2021/08/22 01:28:15;;;;;;;10.23;4.85;;;;;;;16.99;100.00;101534.88;5059994;28;20117;-67
2021/08/22 01:30:47;;;;;;;12.10;5.20;;;;;;;16.98;100.00;101530.41;5057216;28;20064;-67
2021/08/22 01:33:18;;;;;;;10.75;4.65;;;;;;;16.91;100.00;101531.66;5057601;28;20393;-67
2021/08/22 01:35:47;;;;;;;13.30;4.53;;;;;;;16.85;100.00;101526.53;5058126;28;20344;-67
2021/08/22 01:38:16;;;;;;;9.45;4.15;;;;;;;16.83;100.00;101531.09;5057638;28;20040;-67
2021/08/22 01:40:44;;;;;;;11.40;4.68;;;;;;;16.78;100.00;101527.75;5058647;28;20091;-67
2021/08/22 01:43:13;;;;;;;13.48;4.30;;;;;;;16.71;100.00;101523.59;5056262;28;20223;-68
2021/08/22 01:45:43;;;;;;;13.55;4.28;;;;;;;16.68;100.00;101540.78;5057891;28;20056;-69
2021/08/22 01:48:13;;;;;;;9.35;4.47;;;;;;;16.69;100.00;101534.44;5057294;28;20131;-69
2021/08/22 01:50:42;;;;;;;8.75;4.13;;;;;;;16.68;100.00;101542.59;5062773;28;20924;-68
2021/08/22 01:53:10;;;;;;;10.73;4.40;;;;;;;16.68;100.00;101527.31;5058579;28;20376;-69
2021/08/22 01:55:38;;;;;;;8.23;4.15;;;;;;;16.68;100.00;101534.53;5059354;28;20092;-71
2021/08/22 01:58:06;;;;;;;9.00;3.63;;;;;;;16.68;100.00;101519.22;5061665;28;20102;-68
2021/08/22 02:00:34;;;;;;;9.23;4.18;;;;;;;16.63;100.00;101521.25;5055966;28;20368;-69
2021/08/22 02:03:11;;;;;;;8.52;3.75;;;;;;;16.67;100.00;101530.06;5060878;28;20065;-67
2021/08/22 02:05:41;;;;;;;10.20;4.28;;;;;;;16.62;100.00;101528.47;5058499;28;20052;-67
2021/08/22 02:08:13;;;;;;;9.20;4.13;;;;;;;16.59;100.00;101531.31;5057969;28;20421;-68
2021/08/22 02:10:47;;;;;;;10.50;4.13;;;;;;;16.52;100.00;101534.38;5060209;28;20384;-69
2021/08/22 02:13:17;;;;;;;10.73;4.32;;;;;;;16.48;100.00;101536.34;5059219;28;20277;-69
2021/08/22 02:15:46;;;;;;;9.05;4.00;;;;;;;16.51;100.00;101535.31;5062156;28;20087;-70
2021/08/22 02:18:16;;;;;;;9.35;4.57;;;;;;;16.53;100.00;101528.91;5059031;28;20069;-69
2021/08/22 02:20:46;;;;;;;9.15;3.83;;;;;;;16.53;100.00;101530.72;5058529;28;20130;-69
2021/08/22 02:23:14;;;;;;;8.82;3.90;;;;;;;16.51;100.00;101528.09;5058770;28;20088;-69
2021/08/22 02:25:43;;;;;;;9.23;4.22;;;;;;;16.44;100.00;101532.88;5058123;28;20079;-69
2021/08/22 02:28:11;;;;;;;15.85;4.50;;;;;;;16.40;100.00;101535.81;5062828;28;20060;-69
2021/08/22 02:30:39;;;;;;;10.40;4.03;;;;;;;16.37;100.00;101536.81;5059020;28;20516;-70
2021/08/22 02:33:08;;;;;;;9.82;4.40;;;;;;;16.37;100.00;101538.63;5056212;28;20059;-69
2021/08/22 02:35:37;;;;;;;7.97;4.05;;;;;;;16.31;100.00;101534.41;5058390;28;20073;-69
2021/08/22 02:38:06;;;;;;;8.45;3.95;;;;;;;16.29;100.00;101540.78;5056312;28;20065;-69
2021/08/22 02:40:34;;;;;;;13.63;4.78;;;;;;;16.29;100.00;101533.56;5061829;28;20110;-69
2021/08/22 02:43:01;;;;;;;8.27;4.22;;;;;;;16.25;100.00;101538.22;5055908;28;20071;-69
2021/08/22 02:45:29;;;;;;;15.15;4.32;;;;;;;16.21;100.00;101533.06;5064535;28;20460;-70
2021/08/22 02:47:58;;;;;;;13.77;4.78;;;;;;;16.14;100.00;101531.56;5061259;28;20488;-67
2021/08/22 02:50:28;;;;;;;13.02;4.72;;;;;;;16.09;100.00;101539.88;5058386;28;20068;-67
2021/08/22 02:52:56;;;;;;;11.43;5.07;;;;;;;16.01;100.00;101532.13;5062277;28;20127;-67
2021/08/22 02:55:25;;;;;;;11.18;5.70;;;;;;;15.96;100.00;101531.44;5057364;28;20107;-67
2021/08/22 02:57:53;;;;;;;12.13;5.00;;;;;;;15.92;100.00;101529.84;5059391;28;20056;-67
2021/08/22 03:00:20;;;;;;;10.07;4.90;;;;;;;15.95;100.00;101521.59;5058667;28;20071;-67
2021/08/22 03:02:49;;;;;;;14.00;5.30;;;;;;;15.89;100.00;101527.28;5055869;28;20064;-68
2021/08/22 03:05:18;;;;;;;12.90;5.57;;;;;;;15.84;100.00;101531.97;5061870;28;20044;-68
2021/08/22 03:07:46;;;;;;;13.20;6.53;;;;;;;15.84;100.00;101530.16;5058297;28;20312;-68
2021/08/22 03:10:14;;;;;;;14.52;6.72;;;;;;;15.82;100.00;101523.09;5057400;28;20075;-68
2021/08/22 03:12:43;;;;;;;14.70;7.18;;;;;;;15.83;100.00;101523.03;5056504;28;20110;-67
2021/08/22 03:15:11;;;;;;;12.80;6.55;;;;;;;15.84;100.00;101526.59;5061080;28;21165;-67
2021/08/22 03:17:39;;;;;;;11.63;6.68;;;;;;;15.83;100.00;101520.34;5058090;28;20109;-67
2021/08/22 03:20:08;;;;;;;15.95;7.60;;;;;;;15.83;100.00;101522.16;5061321;28;20798;-68
2021/08/22 03:22:35;;;;;;;16.25;7.95;;;;;;;15.83;100.00;101522.16;5057908;28;20071;-69
2021/08/22 03:25:04;;;;;;;21.27;9.15;;;;;;;15.82;100.00;101526.66;5061571;28;20698;-69
2021/08/22 03:27:32;;;;;;;18.90;8.75;;;;;;;15.80;100.00;101525.88;5058466;28;20068;-69
2021/08/22 03:30:01;;;;;;;18.70;9.25;;;;;;;15.78;100.00;101529.53;5062087;28;20456;-69
2021/08/22 03:32:29;;;;;;;17.23;9.77;;;;;;;15.76;100.00;101523.38;5058468;28;20110;-68
2021/08/22 03:34:57;;;;;;;21.27;10.82;;;;;;;15.72;100.00;101527.09;5056855;28;20064;-70
2021/08/22 03:37:25;;;;;;;25.42;12.88;;;;;;;15.74;100.00;101526.09;5059204;28;20743;-69
2021/08/22 03:39:53;;;;;;;24.35;12.65;;;;;;;15.72;100.00;101527.09;5058932;28;20064;-69
2021/08/22 03:42:20;;;;;;;19.13;10.70;;;;;;;15.76;100.00;101536.81;5057413;28;20530;-69
2021/08/22 03:44:48;;;;;;;24.52;13.25;;;;;;;15.76;100.00;101537.69;5056528;28;20053;-69
2021/08/22 03:47:17;;;;;;;27.48;13.15;;;;;;;15.81;100.00;101537.50;5057628;28;20057;-69
2021/08/22 03:49:45;;;;;;;24.92;12.85;;;;;;;15.83;100.00;101530.22;5058229;28;20082;-69
2021/08/22 03:52:13;;;;;;;25.58;12.90;;;;;;;15.88;100.00;101525.53;5054376;28;20065;-69
2021/08/22 03:54:40;;;;;;;31.98;17.17;;;;;;;15.94;100.00;101537.84;5056842;28;20082;-69
2021/08/22 03:57:08;;;;;;;36.60;18.80;;;;;;;15.95;100.00;101526.13;5059620;28;20099;-69
2021/08/22 03:59:35;;;;;;;41.10;20.38;;;;;;;15.98;100.00;101526.88;5055860;28;20064;-68
2021/08/22 04:02:04;;;;;;;37.63;21.00;;;;;;;15.98;100.00;101529.56;5054201;28;20040;-67
2021/08/22 04:04:33;;;;;;;39.92;20.17;;;;;;;16.06;100.00;101534.63;5053142;28;20071;-67
2021/08/22 04:07:01;;;;;;;39.75;19.70;;;;;;;16.06;100.00;101535.47;5055609;28;20086;-68
2021/08/22 04:09:30;;;;;;;44.53;21.52;;;;;;;16.08;100.00;101535.41;5054228;28;20065;-69
2021/08/22 04:11:59;;;;;;;42.95;22.58;;;;;;;16.12;100.00;101528.06;5059327;28;20065;-68
2021/08/22 04:14:27;;;;;;;49.03;23.48;;;;;;;16.15;100.00;101528.81;5061301;28;20064;-68
2021/08/22 04:16:54;;;;;;;49.95;24.10;;;;;;;16.14;100.00;101531.56;5052304;28;20100;-68
2021/08/22 04:19:22;;;;;;;48.22;23.73;;;;;;;16.19;100.00;101529.53;5056087;28;20060;-68
2021/08/22 04:21:52;;;;;;;49.88;24.50;;;;;;;16.21;100.00;101530.38;5059361;28;20048;-68
2021/08/22 04:24:23;;;;;;;52.03;25.33;;;;;;;16.25;100.00;101526.59;5060006;28;20068;-68
2021/08/22 04:26:51;;;;;;;52.85;26.08;;;;;;;16.24;100.00;101523.03;5054174;28;20240;-67
2021/08/22 04:29:19;;;;;;;59.05;27.50;;;;;;;16.27;100.00;101516.63;5056848;28;20401;-68
2021/08/22 04:31:47;;;;;;;55.08;26.58;;;;;;;16.28;100.00;101523.78;5060220;28;20335;-67
2021/08/22 04:34:15;;;;;;;52.42;25.98;;;;;;;16.34;100.00;101522.59;5055344;28;20336;-67
2021/08/22 04:36:43;;;;;;;59.85;27.52;;;;;;;16.33;100.00;101524.44;5058731;28;20413;-67
2021/08/22 04:39:13;;;;;;;61.33;28.70;;;;;;;16.38;100.00;101518.84;5054858;28;20068;-67
2021/08/22 04:41:43;;;;;;;50.95;24.17;;;;;;;16.43;100.00;101524.91;5059625;28;20316;-68
2021/08/22 04:44:11;;;;;;;54.13;27.38;;;;;;;16.41;100.00;101514.19;5058581;28;20131;-67
2021/08/22 04:46:39;;;;;;;54.35;24.70;;;;;;;16.41;100.00;101516.88;5057079;28;20100;-68
2021/08/22 04:49:07;;;;;;;49.83;23.70;;;;;;;16.44;100.00;101519.41;5058540;28;20304;-67
2021/08/22 04:51:35;;;;;;;50.67;25.65;;;;;;;16.45;100.00;101520.31;5052862;28;20314;-67
2021/08/22 04:54:03;;;;;;;46.75;23.00;;;;;;;16.47;100.00;101517.53;5056173;28;20110;-67
2021/08/22 04:56:32;;;;;;;51.50;24.80;;;;;;;16.47;100.00;101528.31;5058346;28;20094;-68
2021/08/22 04:59:00;;;;;;;44.92;22.45;;;;;;;16.46;100.00;101516.66;5055105;28;20093;-68
2021/08/22 05:01:27;;;;;;;44.80;23.38;;;;;;;16.42;100.00;101515.91;5055525;28;20064;-68
2021/08/22 05:03:55;;;;;;;39.00;21.70;;;;;;;16.46;100.00;101508.56;5056234;28;20074;-67
2021/08/22 05:06:23;;;;;;;43.17;22.00;;;;;;;16.48;100.00;101513.88;5056550;28;20458;-69
2021/08/22 05:08:51;;;;;;;47.60;24.00;;;;;;;16.45;100.00;101512.22;5056563;28;20450;-68
2021/08/22 05:11:19;;;;;;;46.65;22.65;;;;;;;16.46;100.00;101513.97;5052263;28;20096;-68
2021/08/22 05:13:48;;;;;;;41.25;20.60;;;;;;;16.43;100.00;101512.28;5060363;28;20137;-68
2021/08/22 05:16:16;;;;;;;46.38;22.95;;;;;;;16.45;100.00;101514.91;5053896;28;20157;-68
2021/08/22 05:18:44;;;;;;;44.70;23.10;;;;;;;16.43;100.00;101516.81;5055494;28;20072;-68
2021/08/22 05:21:11;;;;;;;40.70;20.83;;;;;;;16.42;100.00;101518.63;5059081;28;20056;-68
2021/08/22 05:23:39;;;;;;;41.38;22.38;;;;;;;16.44;100.00;101515.84;5058381;28;20608;-68
2021/08/22 05:26:07;;;;;;;42.67;22.63;;;;;;;16.42;100.00;101515.06;5059204;28;20479;-68
2021/08/22 05:28:34;;;;;;;47.33;22.85;;;;;;;16.43;100.00;101517.69;5054769;28;20311;-68
2021/08/22 05:31:03;;;;;;;46.90;22.48;;;;;;;16.44;100.00;101522.09;5058712;28;20282;-68
2021/08/22 05:33:33;;;;;;;43.75;23.20;;;;;;;16.48;100.00;101521.97;5053661;28;20070;-68
2021/08/22 05:36:14;;;;;;;40.63;21.92;;;;;;;16.51;100.00;101521.84;5052445;28;20068;-68
2021/08/22 05:38:42;;;;;;;43.72;22.23;;;;;;;16.51;100.00;101521.84;5057714;28;20068;-68
2021/08/22 05:41:10;;;;;;;43.15;23.05;;;;;;;16.52;100.00;101527.16;5052012;28;20073;-68
2021/08/22 05:43:38;;;;;;;43.40;22.67;;;;;;;16.60;100.00;101519.59;5055911;28;20088;-68
2021/08/22 05:46:08;;;;;;;40.17;20.98;;;;;;;16.61;100.00;101525.84;5054855;28;20093;-69
2021/08/22 05:48:36;;;;;;;37.33;20.17;;;;;;;16.64;100.00;101523.03;5060693;28;20064;-67
2021/08/22 05:51:04;;;;;;;37.42;19.70;;;;;;;16.70;100.00;101530.81;5059190;28;20060;-67
2021/08/22 05:53:32;;;;;;;40.33;22.17;;;;;;;16.68;100.00;101518.34;5054608;28;20338;-68
2021/08/22 05:56:00;;;;;;;40.72;20.20;;;;;;;16.75;100.00;101530.59;5064000;28;20490;-67
2021/08/22 05:58:27;;;;;;;40.92;20.25;;;;;;;16.75;100.00;101523.41;5056732;28;20064;-67
2021/08/22 06:00:55;;;;;;;43.55;20.63;;;;;;;16.68;100.00;101532.69;5058122;28;20167;-67
2021/08/22 06:03:25;;;;;;;34.17;18.00;;;;;;;16.74;100.00;101523.47;5056240;28;20407;-68
2021/08/22 06:05:53;;;;;;;36.25;18.33;;;;;;;16.76;100.00;101533.22;5057616;28;20494;-68
2021/08/22 06:08:21;;;;;;;34.03;19.10;;;;;;;16.78;100.00;101528.63;5062570;28;20114;-69
2021/08/22 06:10:49;;;;;;;36.83;18.58;;;;;;;16.75;100.00;101536.88;5055513;28;20055;-68
2021/08/22 06:13:16;;;;;;;34.08;18.27;;;;;;;16.78;100.00;101530.44;5057905;28;20350;-69
2021/08/22 06:15:44;;;;;;;33.90;17.95;;;;;;;16.73;100.00;101532.47;5061262;28;20091;-68
2021/08/22 06:18:12;;;;;;;36.53;17.80;;;;;;;16.73;100.00;101540.56;5056739;28;20088;-68
2021/08/22 06:20:41;;;;;;;33.72;18.02;;;;;;;16.72;100.00;101536.13;5060410;28;20068;-69
2021/08/22 06:23:08;;;;;;;34.35;16.90;;;;;;;16.75;100.00;101542.25;5057952;28;20061;-69
2021/08/22 06:25:37;;;;;;;32.92;17.77;;;;;;;16.77;100.00;101542.16;5058963;28;20068;-69
2021/08/22 06:28:05;;;;;;;31.27;16.48;;;;;;;16.78;100.00;101543.91;5058871;28;20036;-69
2021/08/22 06:30:33;;;;;;;27.52;15.55;;;;;;;16.83;100.00;101549.97;5058336;28;20060;-69
2021/08/22 06:33:01;;;;;;;28.30;15.20;;;;;;;16.94;100.00;101549.47;5058324;28;20359;-69
2021/08/22 06:35:28;;;;;;;26.05;14.07;;;;;;;16.91;100.00;101544.28;5059424;28;20076;-69
2021/08/22 06:37:57;;;;;;;28.38;15.52;;;;;;;16.99;100.00;101550.13;5059156;28;20063;-69
2021/08/22 06:40:25;;;;;;;26.60;15.30;;;;;;;17.21;100.00;101541.03;5057458;28;20092;-69
2021/08/22 06:42:53;;;;;;;26.23;14.25;;;;;;;17.34;100.00;101551.13;5059695;28;20099;-69
2021/08/22 06:45:22;;;;;;;23.70;13.43;;;;;;;17.79;100.00;101553.44;5058200;28;20173;-69
2021/08/22 06:47:53;;;;;;;26.13;14.32;;;;;;;18.34;100.00;101552.38;5057468;28;20073;-69
2021/08/22 06:50:23;;;;;;;21.45;11.45;;;;;;;18.74;98.73;101553.81;5058954;28;20084;-69
2021/08/22 06:52:52;;;;;;;23.13;13.38;;;;;;;19.31;98.71;101550.66;5060833;28;20059;-69
2021/08/22 06:55:22;;;;;;;21.98;12.50;;;;;;;19.63;95.21;101555.16;5059529;28;20118;-69
2021/08/22 06:57:50;;;;;;;19.48;11.50;;;;;;;19.72;95.71;101551.91;5057343;28;20126;-69
2021/08/22 07:00:18;;;;;;;22.48;11.27;;;;;;;19.26;95.20;101551.88;5057097;28;20090;-69
2021/08/22 07:02:46;;;;;;;19.98;11.88;;;;;;;18.88;95.36;101558.47;5058485;28;20099;-69
2021/08/22 07:05:14;;;;;;;21.45;12.55;;;;;;;18.64;96.15;101557.97;5057047;28;20064;-69
2021/08/22 07:07:42;;;;;;;19.02;12.00;;;;;;;18.39;94.87;101566.53;5056512;28;20060;-70
2021/08/22 07:10:11;;;;;;;21.95;11.35;;;;;;;18.28;95.62;101570.69;5056771;28;20060;-70
2021/08/22 07:12:41;;;;;;;25.33;11.93;;;;;;;18.25;98.42;101567.25;5058489;28;20226;-70
2021/08/22 07:15:10;;;;;;;25.50;12.52;;;;;;;18.06;96.79;101578.16;5057742;28;20103;-70
2021/08/22 07:17:37;;;;;;;23.08;11.80;;;;;;;18.12;98.11;101572.47;5056318;28;20140;-68
2021/08/22 07:20:06;;;;;;;25.02;11.93;;;;;;;18.15;97.47;101575.00;5058366;28;20091;-69
2021/08/22 07:22:35;;;;;;;20.85;11.48;;;;;;;18.11;98.08;101582.38;5059245;28;20069;-68
2021/08/22 07:25:04;;;;;;;25.25;11.73;;;;;;;18.10;97.97;101577.06;5058359;28;20587;-68
2021/08/22 07:27:32;;;;;;;26.00;12.52;;;;;;;18.13;97.82;101576.03;5053475;28;20065;-69
2021/08/22 07:30:01;;;;;;;24.15;12.07;;;;;;;18.24;98.09;101577.22;5058692;28;20044;-68
2021/08/22 07:32:32;;;;;;;22.17;12.00;;;;;;;18.38;97.32;101575.59;5057152;28;20066;-66
2021/08/22 07:35:03;;;;;;;20.30;11.25;;;;;;;18.36;97.64;101570.28;5058133;28;20050;-66
2021/08/22 07:37:36;;;;;;;19.52;10.63;;;;;;;18.35;97.10;101573.06;5056741;28;20060;-66
2021/08/22 07:40:06;;;;;;;19.65;10.20;;;;;;;18.24;96.16;101566.41;5055437;28;20071;-65
2021/08/22 07:42:34;;;;;;;18.67;10.93;;;;;;;18.26;97.30;101574.44;5056008;28;20065;-66
2021/08/22 07:45:07;;;;;;;18.67;10.32;;;;;;;18.37;97.08;101579.25;5057290;28;20068;-67
2021/08/22 07:47:35;;;;;;;19.17;11.13;;;;;;;18.29;96.23;101572.44;5057062;28;20333;-67
2021/08/22 07:50:03;;;;;;;23.27;11.43;;;;;;;18.36;96.39;101569.41;5053772;28;20060;-66
2021/08/22 07:52:31;;;;;;;22.30;11.68;;;;;;;18.36;96.06;101570.28;5055235;28;20116;-65
2021/08/22 07:54:58;;;;;;;22.80;11.50;;;;;;;18.61;95.47;101580.66;5056499;28;20378;-65
2021/08/22 07:57:26;;;;;;;20.55;12.25;;;;;;;18.63;95.07;101577.88;5054938;28;20122;-65
2021/08/22 07:59:54;;;;;;;20.23;11.93;;;;;;;18.80;94.34;101571.53;5056051;28;20564;-66
2021/08/22 08:02:23;;;;;;;22.15;11.38;;;;;;;18.92;94.36;101578.13;5053970;28;20106;-66
2021/08/22 08:04:51;;;;;;;19.55;11.60;;;;;;;18.99;92.90;101574.13;5055609;28;20068;-66
2021/08/22 08:07:19;;;;;;;22.13;11.73;;;;;;;18.85;93.00;101566.78;5053861;28;20061;-68
2021/08/22 08:09:47;;;;;;;24.55;12.32;;;;;;;18.80;93.77;101572.41;5052647;28;20167;-68
2021/08/22 08:12:14;;;;;;;20.90;11.73;;;;;;;18.69;95.02;101576.66;5056627;28;20118;-68
2021/08/22 08:14:42;;;;;;;24.42;14.07;;;;;;;18.42;94.99;101575.38;5052207;28;20266;-68
2021/08/22 08:17:10;;;;;;;22.95;14.25;;;;;;;18.42;96.12;101583.47;5055286;28;20102;-68
2021/08/22 08:19:39;;;;;;;27.80;14.05;;;;;;;18.37;95.83;101581.94;5059611;28;20340;-68
2021/08/22 08:22:09;;;;;;;25.40;13.82;;;;;;;18.45;96.30;101594.09;5051966;28;20060;-68
2021/08/22 08:24:37;;;;;;;23.30;13.85;;;;;;;18.46;96.52;101595.84;5058065;28;20106;-68
2021/08/22 08:27:05;;;;;;;26.90;14.02;;;;;;;18.55;96.04;101585.50;5052539;28;20060;-67
2021/08/22 08:29:33;;;;;;;22.88;13.25;;;;;;;18.61;95.26;101591.47;5056062;28;20406;-67
2021/08/22 08:32:01;;;;;;;26.20;13.50;;;;;;;18.59;95.65;101587.09;5059696;28;20064;-67
2021/08/22 08:34:29;;;;;;;27.55;14.13;;;;;;;18.61;94.68;101586.06;5054075;28;20045;-67
2021/08/22 08:36:58;;;;;;;28.10;14.68;;;;;;;18.82;94.92;101584.03;5059910;28;20118;-67
2021/08/22 08:39:26;;;;;;;25.00;15.32;;;;;;;19.00;94.40;101592.97;5055972;28;20114;-67
2021/08/22 08:41:54;;;;;;;26.15;14.40;;;;;;;19.26;93.46;101593.34;5055914;28;20056;-67
2021/08/22 08:44:22;;;;;;;24.75;14.38;;;;;;;19.22;92.52;101592.63;5055582;28;20395;-67
2021/08/22 08:46:51;;;;;;;26.70;15.98;;;;;;;19.29;91.72;101595.88;5051478;28;20483;-67
2021/08/22 08:49:23;;;;;;;27.13;15.07;;;;;;;19.61;90.91;101587.72;5056180;28;20427;-67
2021/08/22 08:51:58;;;;;;;25.27;14.93;;;;;;;19.91;89.52;101587.78;5053974;28;20056;-65
2021/08/22 08:54:28;;;;;;;24.30;15.00;;;;;;;20.23;87.05;101584.13;5058644;28;20056;-64
2021/08/22 08:56:56;;;;;;;23.48;12.75;;;;;;;20.57;85.44;101588.31;5057582;28;20454;-64
2021/08/22 08:59:24;;;;;;;25.23;13.85;;;;;;;20.79;84.43;101573.41;5054694;28;20061;-64
2021/08/22 09:01:55;;;;;;;20.30;12.23;;;;;;;21.56;82.04;101576.63;5057226;28;20096;-66
2021/08/22 09:04:29;;;;;;;23.20;13.73;;;;;;;22.21;80.81;101586.66;5053950;28;20103;-64
2021/08/22 09:07:46;;;;;;;22.00;13.13;;;;;;;23.15;79.17;101574.56;5058341;28;20113;-64
2021/08/22 09:10:56;;;;;;;19.98;12.73;;;;;;;23.00;75.15;101572.94;5052336;28;20110;-64
2021/08/22 09:14:07;;;;;;;22.33;12.70;;;;;;;22.49;75.04;101582.03;5057873;28;20176;-69
2021/08/22 09:17:14;;;;;;;19.40;11.85;;;;;;;22.33;77.52;101591.28;5053865;28;20322;-64
2021/08/22 09:20:30;;;;;;;21.05;11.70;;;;;;;22.13;77.94;101591.75;5056952;28;20143;-67
2021/08/22 09:23:46;;;;;;;20.58;11.73;;;;;;;21.57;78.94;101583.75;5055593;28;20147;-67
2021/08/22 09:26:51;;;;;;;19.40;11.50;;;;;;;21.77;79.17;101591.44;5063876;28;20122;-65
2021/08/22 09:29:57;;;;;;;16.23;10.32;;;;;;;22.16;77.50;101588.81;5059731;28;20419;-67
2021/08/22 09:33:13;;;;;;;14.50;9.48;;;;;;;21.94;77.10;101592.16;5058752;28;20308;-65
2021/08/22 09:36:32;;;;;;;16.85;8.50;;;;;;;21.17;78.04;101591.81;5059313;28;20591;-68
2021/08/22 09:39:41;;;;;;;10.05;5.68;;;;;;;21.07;77.53;101592.38;5059425;28;20057;-67
2021/08/22 09:42:58;;;;;;;11.80;6.85;;;;;;;20.60;82.04;101598.06;5032826;28;20068;-65
2021/08/22 09:46:04;;;;;;;15.60;8.38;;;;;;;20.05;86.95;101597.78;5057148;28;20114;-65
2021/08/22 09:49:08;;;;;;;14.18;8.20;;;;;;;19.96;89.35;101604.63;5059589;28;20052;-66
2021/08/22 09:52:14;;;;;;;15.95;7.85;;;;;;;19.42;92.18;101607.72;5058006;28;20091;-67
2021/08/22 09:55:21;;;;;;;14.02;7.30;;;;;;;19.40;93.57;101609.66;5060028;28;20471;-69
2021/08/22 09:58:28;;;;;;;11.88;6.70;;;;;;;19.09;92.72;101618.63;5054221;28;20598;-68
2021/08/22 10:01:34;;;;;;;10.50;6.20;;;;;;;19.11;93.03;101619.41;5007123;28;20065;-67
2021/08/22 10:04:18;;;;;;;13.45;6.95;;;;;;;19.10;93.39;101616.78;5053760;28;20068;-68
2021/08/22 10:07:01;;;;;;;12.65;7.55;;;;;;;19.10;94.00;101619.50;5059525;28;20139;-68
2021/08/22 10:09:40;;;;;;;10.68;6.43;;;;;;;19.13;93.98;101622.91;5056433;28;20052;-68
2021/08/22 10:12:08;;;;;;;12.88;8.07;;;;;;;18.94;93.61;101635.69;5059151;28;20150;-69
2021/08/22 10:14:38;;;;;;;14.50;8.43;;;;;;;18.83;95.06;101645.28;5060233;28;20064;-69
2021/08/22 10:17:07;;;;;;;10.55;5.65;;;;;;;18.52;94.88;101639.72;5056736;28;20228;-70
2021/08/22 10:19:35;;;;;;;9.75;4.70;;;;;;;18.28;96.39;101648.16;5056819;28;20064;-70
2021/08/22 10:22:16;;;;;;;9.52;5.00;;;;;;;18.24;96.14;101644.72;5053653;28;20088;-70
2021/08/22 10:24:55;;;;;;;9.50;4.28;;;;;;;18.15;95.90;101649.72;5057035;28;20048;-70
2021/08/22 10:28:03;;;;;;;7.20;4.13;;;;;;;17.96;96.09;101652.50;5059223;28;20103;-69
2021/08/22 10:30:42;;;;;;;8.07;4.53;;;;;;;17.52;97.01;101643.78;5060015;28;20162;-70
2021/08/22 10:33:15;;;;;;;9.48;4.20;;;;;;;17.52;98.60;101634.81;5055124;28;20061;-70
2021/08/22 10:35:43;;;;;;;9.55;4.50;;;;;;;17.37;99.15;101639.13;5057583;28;20059;-70
2021/08/22 10:38:28;;;;;;;10.77;4.72;;;;;;;17.35;100.00;101636.50;5061883;28;20102;-70
2021/08/22 10:40:59;;;;;;;11.32;4.35;;;;;;;17.13;100.00;101625.00;5057226;28;20149;-70
2021/08/22 10:43:45;;;;;;;9.02;4.35;;;;;;;17.12;100.00;101624.09;5056767;28;20282;-70
2021/08/22 10:46:20;;;;;;;8.63;4.28;;;;;;;17.22;100.00;101626.38;5059878;28;20052;-69
2021/08/22 10:48:54;;;;;;;8.48;4.05;;;;;;;17.10;100.00;101631.41;5060229;28;20056;-69
2021/08/22 10:51:26;;;;;;;8.60;3.70;;;;;;;16.95;100.00;101641.06;5061211;28;20071;-70
2021/08/22 10:54:18;;;;;;;10.10;4.00;;;;;;;17.10;100.00;101644.00;5058072;28;20064;-70
2021/08/22 10:56:46;;;;;;;7.72;3.55;;;;;;;17.03;100.00;101654.22;5056622;28;20154;-69
2021/08/22 10:59:15;;;;;;;9.02;3.70;;;;;;;17.00;100.00;101657.03;5056933;28;20065;-69
2021/08/22 11:01:43;;;;;;;7.97;3.65;;;;;;;16.90;100.00;101659.28;5057737;28;20063;-67
2021/08/22 11:04:13;;;;;;;8.90;3.30;;;;;;;16.95;100.00;101650.97;5058074;28;20064;-68
2021/08/22 11:07:02;;;;;;;7.13;3.60;;;;;;;16.95;100.00;101645.59;5053905;28;20283;-70
2021/08/22 11:09:37;;;;;;;9.63;3.30;;;;;;;16.99;100.00;101650.78;5060294;28;20091;-68
2021/08/22 11:12:21;;;;;;;6.53;3.58;;;;;;;17.04;100.00;101655.06;5056994;28;20072;-68
2021/08/22 11:14:48;;;;;;;;;;;;;;;17.01;100.00;101666.00;5056841;28;20443;-69
2021/08/22 11:17:16;;;;;;;7.30;2.75;;;;;;;17.10;100.00;101665.59;5059003;28;20008;-68
2021/08/22 11:19:44;;;;;;;6.95;3.22;;;;;;;17.22;100.00;101667.69;5059485;28;21078;-67
2021/08/22 11:22:26;;;;;;;6.50;3.00;;;;;;;17.23;100.00;101655.09;5056553;28;20485;-66
2021/08/22 11:24:57;;;;;;;7.55;3.42;;;;;;;17.24;100.00;101648.75;5060181;28;20096;-66
2021/08/22 11:27:27;;;;;;;5.47;3.03;;;;;;;17.11;100.00;101656.53;5056636;28;20064;-67
2021/08/22 11:29:56;;;;;;;8.25;3.20;;;;;;;17.05;100.00;101663.09;5057644;28;20122;-65
2021/08/22 11:32:24;;;;;;;7.13;3.58;;;;;;;17.06;100.00;101654.06;5061197;28;20067;-67